sensor_id;sensor_type;location;lat;lon;timestamp;P1;durP1;ratioP1;P2;durP2;ratioP2
22675;SDS011;12521;43.310;21.876;2022-08-14T00:02:51;19.0;;;17.0;;
22675;SDS011;12521;43.310;21.876;2022-08-14T00:07:28;19.0;;;18.0;;
22675;SDS011;12521;43.310;21.876;2022-08-14T00:12:07;19.0;;;18.0;;
22675;SDS011;12521;43.310;21.876;2022-08-14T00:16:45;19.0;;;18.0;;
22675;SDS011;12521;43.310;21.876;2022-08-14T00:21:23;19.0;;;18.0;;
22675;SDS011;12521;43.310;21.876;2022-08-14T00:26:00;21.0;;;20.0;;
22675;SDS011;12521;43.310;21.876;2022-08-14T00:30:40;21.0;;;20.0;;
22675;SDS011;12521;43.310;21.876;2022-08-14T00:35:19;21.0;;;20.0;;
22675;SDS011;12521;43.310;21.876;2022-08-14T00:39:58;23.0;;;22.0;;
22675;SDS011;12521;43.310;21.876;2022-08-14T00:44:36;23.0;;;22.0;;
22675;SDS011;12521;43.310;21.876;2022-08-14T00:49:13;23.0;;;22.0;;
22675;SDS011;12521;43.310;21.876;2022-08-14T00:53:51;23.0;;;22.0;;
22675;SDS011;12521;43.310;21.876;2022-08-14T00:58:27;23.0;;;22.0;;
22675;SDS011;12521;43.310;21.876;2022-08-14T01:03:07;23.0;;;22.0;;
22675;SDS011;12521;43.310;21.876;2022-08-14T01:07:44;24.0;;;22.0;;
22675;SDS011;12521;43.310;21.876;2022-08-14T01:12:25;24.0;;;22.0;;
22675;SDS011;12521;43.310;21.876;2022-08-14T01:17:04;24.0;;;21.0;;
22675;SDS011;12521;43.310;21.876;2022-08-14T01:21:42;24.0;;;21.0;;
22675;SDS011;12521;43.310;21.876;2022-08-14T01:26:25;23.0;;;20.0;;
22675;SDS011;12521;43.310;21.876;2022-08-14T01:31:12;23.0;;;20.0;;
22675;SDS011;12521;43.310;21.876;2022-08-14T01:35:55;23.0;;;20.0;;
22675;SDS011;12521;43.310;21.876;2022-08-14T01:40:35;22.0;;;20.0;;
22675;SDS011;12521;43.310;21.876;2022-08-14T01:45:12;22.0;;;20.0;;
22675;SDS011;12521;43.310;21.876;2022-08-14T01:49:50;20.0;;;19.0;;
22675;SDS011;12521;43.310;21.876;2022-08-14T01:54:28;20.0;;;19.0;;
22675;SDS011;12521;43.310;21.876;2022-08-14T01:59:20;19.0;;;18.0;;
22675;SDS011;12521;43.310;21.876;2022-08-14T02:04:09;19.0;;;18.0;;
22675;SDS011;12521;43.310;21.876;2022-08-14T02:08:47;20.0;;;17.0;;
22675;SDS011;12521;43.310;21.876;2022-08-14T02:13:24;20.0;;;17.0;;
22675;SDS011;12521;43.310;21.876;2022-08-14T02:18:01;20.0;;;16.0;;
22675;SDS011;12521;43.310;21.876;2022-08-14T02:22:38;20.0;;;16.0;;
22675;SDS011;12521;43.310;21.876;2022-08-14T02:27:15;16.0;;;12.0;;
22675;SDS011;12521;43.310;21.876;2022-08-14T02:31:57;16.0;;;12.0;;
22675;SDS011;12521;43.310;21.876;2022-08-14T02:36:38;11.0;;;8.0;;
22675;SDS011;12521;43.310;21.876;2022-08-14T02:41:16;11.0;;;8.0;;
22675;SDS011;12521;43.310;21.876;2022-08-14T02:45:54;11.0;;;8.0;;
22675;SDS011;12521;43.310;21.876;2022-08-14T02:50:31;10.0;;;8.0;;
22675;SDS011;12521;43.310;21.876;2022-08-14T02:55:09;10.0;;;8.0;;
22675;SDS011;12521;43.310;21.876;2022-08-14T02:59:49;10.0;;;9.0;;
22675;SDS011;12521;43.310;21.876;2022-08-14T03:04:29;10.0;;;9.0;;
22675;SDS011;12521;43.310;21.876;2022-08-14T03:09:10;10.0;;;8.0;;
22675;SDS011;12521;43.310;21.876;2022-08-14T03:13:52;10.0;;;8.0;;
22675;SDS011;12521;43.310;21.876;2022-08-14T03:18:30;9.0;;;8.0;;
22675;SDS011;12521;43.310;21.876;2022-08-14T03:23:08;9.0;;;8.0;;
22675;SDS011;12521;43.310;21.876;2022-08-14T03:27:44;10.0;;;8.0;;
22675;SDS011;12521;43.310;21.876;2022-08-14T03:32:21;10.0;;;8.0;;
22675;SDS011;12521;43.310;21.876;2022-08-14T03:36:58;10.0;;;9.0;;
22675;SDS011;12521;43.310;21.876;2022-08-14T03:41:36;10.0;;;9.0;;
22675;SDS011;12521;43.310;21.876;2022-08-14T03:46:14;9.0;;;8.0;;
22675;SDS011;12521;43.310;21.876;2022-08-14T03:50:53;9.0;;;8.0;;
22675;SDS011;12521;43.310;21.876;2022-08-14T03:55:30;9.0;;;8.0;;
22675;SDS011;12521;43.310;21.876;2022-08-14T04:00:12;8.0;;;8.0;;
22675;SDS011;12521;43.310;21.876;2022-08-14T04:04:52;8.0;;;8.0;;
22675;SDS011;12521;43.310;21.876;2022-08-14T04:09:29;8.0;;;7.0;;
22675;SDS011;12521;43.310;21.876;2022-08-14T04:14:06;8.0;;;7.0;;
22675;SDS011;12521;43.310;21.876;2022-08-14T04:18:49;9.0;;;6.0;;
22675;SDS011;12521;43.310;21.876;2022-08-14T04:23:35;9.0;;;6.0;;
22675;SDS011;12521;43.310;21.876;2022-08-14T04:28:14;8.0;;;6.0;;
22675;SDS011;12521;43.310;21.876;2022-08-14T04:32:51;8.0;;;6.0;;
22675;SDS011;12521;43.310;21.876;2022-08-14T04:37:28;6.0;;;6.0;;
22675;SDS011;12521;43.310;21.876;2022-08-14T04:42:05;6.0;;;6.0;;
22675;SDS011;12521;43.310;21.876;2022-08-14T04:46:43;16.0;;;14.0;;
22675;SDS011;12521;43.310;21.876;2022-08-14T04:51:22;16.0;;;14.0;;
22675;SDS011;12521;43.310;21.876;2022-08-14T04:55:59;16.0;;;14.0;;
22675;SDS011;12521;43.310;21.876;2022-08-14T05:00:36;26.0;;;23.0;;
22675;SDS011;12521;43.310;21.876;2022-08-14T05:05:13;26.0;;;23.0;;
22675;SDS011;12521;43.310;21.876;2022-08-14T05:09:50;26.0;;;22.0;;
22675;SDS011;12521;43.310;21.876;2022-08-14T05:14:26;26.0;;;22.0;;
22675;SDS011;12521;43.310;21.876;2022-08-14T05:19:03;25.0;;;21.0;;
22675;SDS011;12521;43.310;21.876;2022-08-14T05:23:40;25.0;;;21.0;;
22675;SDS011;12521;43.310;21.876;2022-08-14T05:28:24;17.0;;;15.0;;
22675;SDS011;12521;43.310;21.876;2022-08-14T05:33:07;17.0;;;15.0;;
22675;SDS011;12521;43.310;21.876;2022-08-14T05:37:44;9.0;;;9.0;;
22675;SDS011;12521;43.310;21.876;2022-08-14T05:42:21;9.0;;;9.0;;
22675;SDS011;12521;43.310;21.876;2022-08-14T05:46:59;8.0;;;8.0;;
22675;SDS011;12521;43.310;21.876;2022-08-14T05:51:36;8.0;;;8.0;;
22675;SDS011;12521;43.310;21.876;2022-08-14T05:56:13;8.0;;;7.0;;
22675;SDS011;12521;43.310;21.876;2022-08-14T06:00:51;8.0;;;7.0;;
22675;SDS011;12521;43.310;21.876;2022-08-14T06:05:30;8.0;;;7.0;;
22675;SDS011;12521;43.310;21.876;2022-08-14T06:10:10;8.0;;;8.0;;
22675;SDS011;12521;43.310;21.876;2022-08-14T06:14:46;8.0;;;8.0;;
22675;SDS011;12521;43.310;21.876;2022-08-14T06:19:23;9.0;;;9.0;;
22675;SDS011;12521;43.310;21.876;2022-08-14T06:23:59;9.0;;;9.0;;
22675;SDS011;12521;43.310;21.876;2022-08-14T06:28:36;8.0;;;8.0;;
22675;SDS011;12521;43.310;21.876;2022-08-14T06:33:17;8.0;;;8.0;;
22675;SDS011;12521;43.310;21.876;2022-08-14T06:37:59;8.0;;;7.0;;
22675;SDS011;12521;43.310;21.876;2022-08-14T06:42:37;8.0;;;7.0;;
22675;SDS011;12521;43.310;21.876;2022-08-14T06:47:14;7.0;;;6.0;;
22675;SDS011;12521;43.310;21.876;2022-08-14T06:51:51;7.0;;;6.0;;
22675;SDS011;12521;43.310;21.876;2022-08-14T06:56:29;6.0;;;6.0;;
22675;SDS011;12521;43.310;21.876;2022-08-14T07:01:06;6.0;;;6.0;;
22675;SDS011;12521;43.310;21.876;2022-08-14T07:05:43;6.0;;;6.0;;
22675;SDS011;12521;43.310;21.876;2022-08-14T07:10:20;6.0;;;6.0;;
22675;SDS011;12521;43.310;21.876;2022-08-14T07:14:58;6.0;;;6.0;;
22675;SDS011;12521;43.310;21.876;2022-08-14T07:19:35;7.0;;;6.0;;
22675;SDS011;12521;43.310;21.876;2022-08-14T07:24:12;7.0;;;6.0;;
22675;SDS011;12521;43.310;21.876;2022-08-14T07:28:48;8.0;;;7.0;;
22675;SDS011;12521;43.310;21.876;2022-08-14T07:33:33;8.0;;;7.0;;
22675;SDS011;12521;43.310;21.876;2022-08-14T07:38:22;9.0;;;8.0;;
22675;SDS011;12521;43.310;21.876;2022-08-14T07:43:01;9.0;;;8.0;;
22675;SDS011;12521;43.310;21.876;2022-08-14T07:47:41;9.0;;;8.0;;
22675;SDS011;12521;43.310;21.876;2022-08-14T07:52:20;9.0;;;8.0;;
22675;SDS011;12521;43.310;21.876;2022-08-14T07:57:00;9.0;;;8.0;;
22675;SDS011;12521;43.310;21.876;2022-08-14T08:01:38;9.0;;;8.0;;
22675;SDS011;12521;43.310;21.876;2022-08-14T08:06:19;9.0;;;8.0;;
22675;SDS011;12521;43.310;21.876;2022-08-14T08:10:57;8.0;;;7.0;;
22675;SDS011;12521;43.310;21.876;2022-08-14T08:15:46;8.0;;;7.0;;
22675;SDS011;12521;43.310;21.876;2022-08-14T08:20:35;6.0;;;6.0;;
22675;SDS011;12521;43.310;21.876;2022-08-14T08:25:23;6.0;;;6.0;;
22675;SDS011;12521;43.310;21.876;2022-08-14T08:30:11;6.0;;;6.0;;
22675;SDS011;12521;43.310;21.876;2022-08-14T08:34:49;6.0;;;6.0;;
22675;SDS011;12521;43.310;21.876;2022-08-14T08:39:26;7.0;;;6.0;;
22675;SDS011;12521;43.310;21.876;2022-08-14T08:44:05;7.0;;;6.0;;
22675;SDS011;12521;43.310;21.876;2022-08-14T08:48:47;8.0;;;6.0;;
22675;SDS011;12521;43.310;21.876;2022-08-14T08:53:33;8.0;;;6.0;;
22675;SDS011;12521;43.310;21.876;2022-08-14T08:58:17;8.0;;;6.0;;
22675;SDS011;12521;43.310;21.876;2022-08-14T09:03:04;8.0;;;6.0;;
22675;SDS011;12521;43.310;21.876;2022-08-14T09:07:48;7.0;;;6.0;;
22675;SDS011;12521;43.310;21.876;2022-08-14T09:12:24;7.0;;;6.0;;
22675;SDS011;12521;43.310;21.876;2022-08-14T09:17:04;6.0;;;6.0;;
22675;SDS011;12521;43.310;21.876;2022-08-14T09:21:43;6.0;;;6.0;;
22675;SDS011;12521;43.310;21.876;2022-08-14T09:26:21;6.0;;;6.0;;
22675;SDS011;12521;43.310;21.876;2022-08-14T09:31:00;6.0;;;6.0;;
22675;SDS011;12521;43.310;21.876;2022-08-14T09:36:33;7.0;;;6.0;;
22675;SDS011;12521;43.310;21.876;2022-08-14T09:42:48;7.0;;;6.0;;
22675;SDS011;12521;43.310;21.876;2022-08-14T09:48:17;7.0;;;6.0;;
22675;SDS011;12521;43.310;21.876;2022-08-14T09:53:04;7.0;;;6.0;;
22675;SDS011;12521;43.310;21.876;2022-08-14T09:57:43;7.0;;;6.0;;
22675;SDS011;12521;43.310;21.876;2022-08-14T10:02:32;7.0;;;6.0;;
22675;SDS011;12521;43.310;21.876;2022-08-14T10:07:09;8.0;;;6.0;;
22675;SDS011;12521;43.310;21.876;2022-08-14T10:11:58;8.0;;;6.0;;
22675;SDS011;12521;43.310;21.876;2022-08-14T10:16:45;10.0;;;7.0;;
22675;SDS011;12521;43.310;21.876;2022-08-14T10:21:27;10.0;;;7.0;;
22675;SDS011;12521;43.310;21.876;2022-08-14T10:26:08;10.0;;;7.0;;
22675;SDS011;12521;43.310;21.876;2022-08-14T10:30:52;9.0;;;7.0;;
22675;SDS011;12521;43.310;21.876;2022-08-14T10:35:41;9.0;;;7.0;;
22675;SDS011;12521;43.310;21.876;2022-08-14T10:40:31;8.0;;;7.0;;
22675;SDS011;12521;43.310;21.876;2022-08-14T10:45:23;8.0;;;7.0;;
22675;SDS011;12521;43.310;21.876;2022-08-14T10:50:09;8.0;;;7.0;;
22675;SDS011;12521;43.310;21.876;2022-08-14T10:54:47;8.0;;;7.0;;
22675;SDS011;12521;43.310;21.876;2022-08-14T10:59:23;8.0;;;7.0;;
22675;SDS011;12521;43.310;21.876;2022-08-14T11:04:01;8.0;;;7.0;;
22675;SDS011;12521;43.310;21.876;2022-08-14T11:08:40;9.0;;;8.0;;
22675;SDS011;12521;43.310;21.876;2022-08-14T11:13:22;9.0;;;8.0;;
22675;SDS011;12521;43.310;21.876;2022-08-14T11:18:04;10.0;;;9.0;;
22675;SDS011;12521;43.310;21.876;2022-08-14T11:22:43;10.0;;;9.0;;
22675;SDS011;12521;43.310;21.876;2022-08-14T11:27:30;8.0;;;8.0;;
22675;SDS011;12521;43.310;21.876;2022-08-14T11:32:09;8.0;;;8.0;;
22675;SDS011;12521;43.310;21.876;2022-08-14T11:36:47;7.0;;;7.0;;
22675;SDS011;12521;43.310;21.876;2022-08-14T11:41:23;7.0;;;7.0;;
22675;SDS011;12521;43.310;21.876;2022-08-14T11:46:00;7.0;;;7.0;;
22675;SDS011;12521;43.310;21.876;2022-08-14T11:50:37;9.0;;;8.0;;
22675;SDS011;12521;43.310;21.876;2022-08-14T11:55:15;9.0;;;8.0;;
22675;SDS011;12521;43.310;21.876;2022-08-14T12:00:01;11.0;;;10.0;;
22675;SDS011;12521;43.310;21.876;2022-08-14T12:04:52;11.0;;;10.0;;
22675;SDS011;12521;43.310;21.876;2022-08-14T12:09:34;10.0;;;10.0;;
22675;SDS011;12521;43.310;21.876;2022-08-14T12:14:14;10.0;;;10.0;;
22675;SDS011;12521;43.310;21.876;2022-08-14T12:18:57;10.0;;;9.0;;
22675;SDS011;12521;43.310;21.876;2022-08-14T12:23:34;10.0;;;9.0;;
22675;SDS011;12521;43.310;21.876;2022-08-14T12:28:11;10.0;;;8.0;;
22675;SDS011;12521;43.310;21.876;2022-08-14T12:32:49;10.0;;;8.0;;
22675;SDS011;12521;43.310;21.876;2022-08-14T12:37:29;9.0;;;8.0;;
22675;SDS011;12521;43.310;21.876;2022-08-14T12:42:07;9.0;;;8.0;;
22675;SDS011;12521;43.310;21.876;2022-08-14T12:46:44;10.0;;;6.0;;
22675;SDS011;12521;43.310;21.876;2022-08-14T12:51:27;10.0;;;6.0;;
22675;SDS011;12521;43.310;21.876;2022-08-14T12:56:04;10.0;;;6.0;;
22675;SDS011;12521;43.310;21.876;2022-08-14T13:00:48;10.0;;;5.0;;
22675;SDS011;12521;43.310;21.876;2022-08-14T13:05:32;10.0;;;5.0;;
22675;SDS011;12521;43.310;21.876;2022-08-14T13:10:13;8.0;;;6.0;;
22675;SDS011;12521;43.310;21.876;2022-08-14T13:14:51;8.0;;;6.0;;
22675;SDS011;12521;43.310;21.876;2022-08-14T13:19:38;7.0;;;6.0;;
22675;SDS011;12521;43.310;21.876;2022-08-14T13:24:22;7.0;;;6.0;;
22675;SDS011;12521;43.310;21.876;2022-08-14T13:29:04;8.0;;;6.0;;
22675;SDS011;12521;43.310;21.876;2022-08-14T13:33:42;8.0;;;6.0;;
22675;SDS011;12521;43.310;21.876;2022-08-14T13:38:21;9.0;;;7.0;;
22675;SDS011;12521;43.310;21.876;2022-08-14T13:42:57;9.0;;;7.0;;
22675;SDS011;12521;43.310;21.876;2022-08-14T13:47:34;8.0;;;7.0;;
22675;SDS011;12521;43.310;21.876;2022-08-14T13:52:20;8.0;;;7.0;;
22675;SDS011;12521;43.310;21.876;2022-08-14T13:57:01;7.0;;;7.0;;
22675;SDS011;12521;43.310;21.876;2022-08-14T14:01:48;7.0;;;7.0;;
22675;SDS011;12521;43.310;21.876;2022-08-14T14:06:30;7.0;;;7.0;;
22675;SDS011;12521;43.310;21.876;2022-08-14T14:11:10;9.0;;;8.0;;
22675;SDS011;12521;43.310;21.876;2022-08-14T14:15:51;9.0;;;8.0;;
22675;SDS011;12521;43.310;21.876;2022-08-14T14:20:29;11.0;;;10.0;;
22675;SDS011;12521;43.310;21.876;2022-08-14T14:25:09;11.0;;;10.0;;
22675;SDS011;12521;43.310;21.876;2022-08-14T14:29:57;10.0;;;9.0;;
22675;SDS011;12521;43.310;21.876;2022-08-14T14:34:37;10.0;;;9.0;;
22675;SDS011;12521;43.310;21.876;2022-08-14T14:39:24;9.0;;;8.0;;
22675;SDS011;12521;43.310;21.876;2022-08-14T14:44:05;9.0;;;8.0;;
22675;SDS011;12521;43.310;21.876;2022-08-14T14:48:48;10.0;;;8.0;;
22675;SDS011;12521;43.310;21.876;2022-08-14T14:53:31;10.0;;;8.0;;
22675;SDS011;12521;43.310;21.876;2022-08-14T14:58:11;11.0;;;9.0;;
22675;SDS011;12521;43.310;21.876;2022-08-14T15:02:53;11.0;;;9.0;;
22675;SDS011;12521;43.310;21.876;2022-08-14T15:07:31;10.0;;;10.0;;
22675;SDS011;12521;43.310;21.876;2022-08-14T15:12:09;10.0;;;10.0;;
22675;SDS011;12521;43.310;21.876;2022-08-14T15:16:46;10.0;;;10.0;;
22675;SDS011;12521;43.310;21.876;2022-08-14T15:21:26;10.0;;;10.0;;
22675;SDS011;12521;43.310;21.876;2022-08-14T15:26:04;10.0;;;10.0;;
22675;SDS011;12521;43.310;21.876;2022-08-14T15:30:46;10.0;;;10.0;;
22675;SDS011;12521;43.310;21.876;2022-08-14T15:35:23;10.0;;;10.0;;
22675;SDS011;12521;43.310;21.876;2022-08-14T15:40:02;11.0;;;10.0;;
22675;SDS011;12521;43.310;21.876;2022-08-14T15:44:43;11.0;;;10.0;;
22675;SDS011;12521;43.310;21.876;2022-08-14T15:49:27;13.0;;;12.0;;
22675;SDS011;12521;43.310;21.876;2022-08-14T15:54:04;13.0;;;12.0;;
22675;SDS011;12521;43.310;21.876;2022-08-14T15:58:42;15.0;;;14.0;;
22675;SDS011;12521;43.310;21.876;2022-08-14T16:03:21;15.0;;;14.0;;
22675;SDS011;12521;43.310;21.876;2022-08-14T16:07:59;19.0;;;17.0;;
22675;SDS011;12521;43.310;21.876;2022-08-14T16:12:47;19.0;;;17.0;;
22675;SDS011;12521;43.310;21.876;2022-08-14T16:17:27;23.0;;;20.0;;
22675;SDS011;12521;43.310;21.876;2022-08-14T16:22:09;23.0;;;20.0;;
22675;SDS011;12521;43.310;21.876;2022-08-14T16:26:47;23.0;;;20.0;;
22675;SDS011;12521;43.310;21.876;2022-08-14T16:31:24;24.0;;;20.0;;
22675;SDS011;12521;43.310;21.876;2022-08-14T16:36:06;24.0;;;20.0;;
22675;SDS011;12521;43.310;21.876;2022-08-14T16:40:54;25.0;;;21.0;;
22675;SDS011;12521;43.310;21.876;2022-08-14T16:45:37;25.0;;;21.0;;
22675;SDS011;12521;43.310;21.876;2022-08-14T16:50:15;26.0;;;22.0;;
22675;SDS011;12521;43.310;21.876;2022-08-14T16:54:52;26.0;;;22.0;;
22675;SDS011;12521;43.310;21.876;2022-08-14T16:59:33;28.0;;;24.0;;
22675;SDS011;12521;43.310;21.876;2022-08-14T17:04:16;28.0;;;24.0;;
22675;SDS011;12521;43.310;21.876;2022-08-14T17:08:52;28.0;;;24.0;;
22675;SDS011;12521;43.310;21.876;2022-08-14T17:13:32;28.0;;;24.0;;
22675;SDS011;12521;43.310;21.876;2022-08-14T17:18:09;29.0;;;24.0;;
22675;SDS011;12521;43.310;21.876;2022-08-14T17:22:52;29.0;;;24.0;;
22675;SDS011;12521;43.310;21.876;2022-08-14T17:27:35;28.0;;;24.0;;
22675;SDS011;12521;43.310;21.876;2022-08-14T17:32:13;28.0;;;24.0;;
22675;SDS011;12521;43.310;21.876;2022-08-14T17:36:52;28.0;;;24.0;;
22675;SDS011;12521;43.310;21.876;2022-08-14T17:41:36;28.0;;;24.0;;
22675;SDS011;12521;43.310;21.876;2022-08-14T17:46:36;28.0;;;24.0;;
22675;SDS011;12521;43.310;21.876;2022-08-14T17:51:20;28.0;;;24.0;;
22675;SDS011;12521;43.310;21.876;2022-08-14T17:55:58;28.0;;;24.0;;
22675;SDS011;12521;43.310;21.876;2022-08-14T18:00:38;28.0;;;25.0;;
22675;SDS011;12521;43.310;21.876;2022-08-14T18:05:20;28.0;;;25.0;;
22675;SDS011;12521;43.310;21.876;2022-08-14T18:10:04;28.0;;;24.0;;
22675;SDS011;12521;43.310;21.876;2022-08-14T18:14:48;28.0;;;24.0;;
22675;SDS011;12521;43.310;21.876;2022-08-14T18:19:32;28.0;;;24.0;;
22675;SDS011;12521;43.310;21.876;2022-08-14T18:24:15;28.0;;;24.0;;
22675;SDS011;12521;43.310;21.876;2022-08-14T18:28:57;29.0;;;24.0;;
22675;SDS011;12521;43.310;21.876;2022-08-14T18:33:56;29.0;;;24.0;;
22675;SDS011;12521;43.310;21.876;2022-08-14T18:39:28;30.0;;;25.0;;
22675;SDS011;12521;43.310;21.876;2022-08-14T18:44:12;30.0;;;25.0;;
22675;SDS011;12521;43.310;21.876;2022-08-14T18:49:15;29.0;;;24.0;;
22675;SDS011;12521;43.310;21.876;2022-08-14T18:53:58;29.0;;;24.0;;
22675;SDS011;12521;43.310;21.876;2022-08-14T18:58:50;28.0;;;23.0;;
22675;SDS011;12521;43.310;21.876;2022-08-14T19:03:45;28.0;;;23.0;;
22675;SDS011;12521;43.310;21.876;2022-08-14T19:08:23;28.0;;;22.0;;
22675;SDS011;12521;43.310;21.876;2022-08-14T19:13:04;28.0;;;22.0;;
22675;SDS011;12521;43.310;21.876;2022-08-14T19:17:44;27.0;;;22.0;;
22675;SDS011;12521;43.310;21.876;2022-08-14T19:22:30;27.0;;;22.0;;
22675;SDS011;12521;43.310;21.876;2022-08-14T19:27:21;28.0;;;24.0;;
22675;SDS011;12521;43.310;21.876;2022-08-14T19:32:32;28.0;;;24.0;;
22675;SDS011;12521;43.310;21.876;2022-08-14T19:37:47;30.0;;;25.0;;
22675;SDS011;12521;43.310;21.876;2022-08-14T19:42:36;30.0;;;25.0;;
22675;SDS011;12521;43.310;21.876;2022-08-14T19:47:16;28.0;;;24.0;;
22675;SDS011;12521;43.310;21.876;2022-08-14T19:51:54;28.0;;;24.0;;
22675;SDS011;12521;43.310;21.876;2022-08-14T19:56:36;28.0;;;24.0;;
22675;SDS011;12521;43.310;21.876;2022-08-14T20:01:32;26.0;;;23.0;;
22675;SDS011;12521;43.310;21.876;2022-08-14T20:06:13;26.0;;;23.0;;
22675;SDS011;12521;43.310;21.876;2022-08-14T20:10:50;26.0;;;22.0;;
22675;SDS011;12521;43.310;21.876;2022-08-14T20:15:35;26.0;;;22.0;;
22675;SDS011;12521;43.310;21.876;2022-08-14T20:20:21;26.0;;;22.0;;
22675;SDS011;12521;43.310;21.876;2022-08-14T20:25:14;26.0;;;22.0;;
22675;SDS011;12521;43.310;21.876;2022-08-14T20:30:12;25.0;;;21.0;;
22675;SDS011;12521;43.310;21.876;2022-08-14T20:34:58;25.0;;;21.0;;
22675;SDS011;12521;43.310;21.876;2022-08-14T20:39:45;24.0;;;20.0;;
22675;SDS011;12521;43.310;21.876;2022-08-14T20:44:22;24.0;;;20.0;;
22675;SDS011;12521;43.310;21.876;2022-08-14T20:49:06;24.0;;;20.0;;
22675;SDS011;12521;43.310;21.876;2022-08-14T20:53:58;24.0;;;20.0;;
22675;SDS011;12521;43.310;21.876;2022-08-14T20:58:41;25.0;;;21.0;;
22675;SDS011;12521;43.310;21.876;2022-08-14T21:03:37;25.0;;;21.0;;
22675;SDS011;12521;43.310;21.876;2022-08-14T21:08:31;24.0;;;20.0;;
22675;SDS011;12521;43.310;21.876;2022-08-14T21:13:11;24.0;;;20.0;;
22675;SDS011;12521;43.310;21.876;2022-08-14T21:17:48;22.0;;;20.0;;
22675;SDS011;12521;43.310;21.876;2022-08-14T21:22:25;22.0;;;20.0;;
22675;SDS011;12521;43.310;21.876;2022-08-14T21:27:10;22.0;;;20.0;;
22675;SDS011;12521;43.310;21.876;2022-08-14T21:31:50;22.0;;;20.0;;
22675;SDS011;12521;43.310;21.876;2022-08-14T21:36:28;22.0;;;20.0;;
22675;SDS011;12521;43.310;21.876;2022-08-14T21:41:14;23.0;;;21.0;;
22675;SDS011;12521;43.310;21.876;2022-08-14T21:45:55;23.0;;;21.0;;
22675;SDS011;12521;43.310;21.876;2022-08-14T21:50:33;22.0;;;20.0;;
22675;SDS011;12521;43.310;21.876;2022-08-14T21:55:17;22.0;;;20.0;;
22675;SDS011;12521;43.310;21.876;2022-08-14T21:59:58;22.0;;;18.0;;
22675;SDS011;12521;43.310;21.876;2022-08-14T22:04:39;22.0;;;18.0;;
22675;SDS011;12521;43.310;21.876;2022-08-14T22:09:22;22.0;;;18.0;;
22675;SDS011;12521;43.310;21.876;2022-08-14T22:14:03;22.0;;;18.0;;
22675;SDS011;12521;43.310;21.876;2022-08-14T22:18:41;21.0;;;19.0;;
22675;SDS011;12521;43.310;21.876;2022-08-14T22:23:18;21.0;;;19.0;;
22675;SDS011;12521;43.310;21.876;2022-08-14T22:27:57;22.0;;;18.0;;
22675;SDS011;12521;43.310;21.876;2022-08-14T22:32:35;22.0;;;18.0;;
22675;SDS011;12521;43.310;21.876;2022-08-14T22:37:11;23.0;;;18.0;;
22675;SDS011;12521;43.310;21.876;2022-08-14T22:41:50;23.0;;;18.0;;
22675;SDS011;12521;43.310;21.876;2022-08-14T22:46:29;23.0;;;18.0;;
22675;SDS011;12521;43.310;21.876;2022-08-14T22:51:06;22.0;;;18.0;;
22675;SDS011;12521;43.310;21.876;2022-08-14T22:55:44;22.0;;;18.0;;
22675;SDS011;12521;43.310;21.876;2022-08-14T23:00:24;21.0;;;17.0;;
22675;SDS011;12521;43.310;21.876;2022-08-14T23:05:02;21.0;;;17.0;;
22675;SDS011;12521;43.310;21.876;2022-08-14T23:09:43;21.0;;;18.0;;
22675;SDS011;12521;43.310;21.876;2022-08-14T23:14:24;21.0;;;18.0;;
22675;SDS011;12521;43.310;21.876;2022-08-14T23:19:03;21.0;;;18.0;;
22675;SDS011;12521;43.310;21.876;2022-08-14T23:23:42;21.0;;;18.0;;
22675;SDS011;12521;43.310;21.876;2022-08-14T23:28:21;22.0;;;18.0;;
22675;SDS011;12521;43.310;21.876;2022-08-14T23:32:57;22.0;;;18.0;;
22675;SDS011;12521;43.310;21.876;2022-08-14T23:37:34;23.0;;;19.0;;
22675;SDS011;12521;43.310;21.876;2022-08-14T23:42:10;23.0;;;19.0;;
22675;SDS011;12521;43.310;21.876;2022-08-14T23:46:47;23.0;;;19.0;;
22675;SDS011;12521;43.310;21.876;2022-08-14T23:51:24;23.0;;;19.0;;
22675;SDS011;12521;43.310;21.876;2022-08-14T23:56:09;23.0;;;19.0;;
